Time;durP1;ratioP1;P1;durP2;ratioP2;P2;SDS_P1;SDS_P2;PMS_P1;PMS_P2;Temp;Humidity;BMP_temperature;BMP_pressure;BME280_temperature;BME280_humidity;BME280_pressure;Samples;Min_cycle;Max_cycle;Signal;HPM_P1;HPM_P2
2024/04/13 00:00:03;;;;;;;7.67;6.80;;;14.80;50.40;;;;;;5239533;27;20253;-66
2024/04/13 00:02:29;;;;;;;7.23;6.40;;;14.90;50.10;;;;;;5237650;27;20732;-66
2024/04/13 00:04:57;;;;;;;7.27;6.17;;;15.00;50.00;;;;;;5241703;27;20844;-66
2024/04/13 00:07:24;;;;;;;7.20;6.37;;;14.90;50.00;;;;;;5241029;27;20314;-66
2024/04/13 00:09:53;;;;;;;6.73;5.97;;;14.90;50.20;;;;;;5240815;27;20285;-66
2024/04/13 00:12:19;;;;;;;6.40;5.60;;;14.80;50.40;;;;;;5240579;27;20250;-66
2024/04/13 00:14:48;;;;;;;8.10;5.60;;;14.90;50.30;;;;;;5241241;27;20776;-66
2024/04/13 00:17:14;;;;;;;6.87;6.10;;;15.00;50.00;;;;;;5236406;27;20243;-65
2024/04/13 00:19:43;;;;;;;6.60;5.70;;;14.90;50.10;;;;;;5238627;27;20294;-66
2024/04/13 00:22:08;;;;;;;7.10;5.67;;;14.90;50.10;;;;;;5240320;27;20243;-66
2024/04/13 00:24:36;;;;;;;8.97;5.83;;;15.00;50.00;;;;;;5240538;27;20358;-66
2024/04/13 00:27:02;;;;;;;6.53;5.77;;;14.90;50.50;;;;;;5241108;27;20342;-66
2024/04/13 00:29:31;;;;;;;6.37;5.77;;;14.80;50.50;;;;;;5239889;27;20260;-65
2024/04/13 00:31:57;;;;;;;6.10;5.50;;;14.90;50.50;;;;;;5243238;27;20247;-66
2024/04/13 00:34:25;;;;;;;6.83;5.93;;;14.80;50.70;;;;;;5239182;27;20357;-66
2024/04/13 00:36:51;;;;;;;6.33;5.30;;;14.70;50.90;;;;;;5242462;27;20238;-66
2024/04/13 00:39:21;;;;;;;7.37;6.37;;;14.80;50.80;;;;;;5243134;27;20345;-66
2024/04/13 00:41:46;;;;;;;8.53;6.00;;;14.80;50.80;;;;;;5243621;27;20314;-66
2024/04/13 00:44:14;;;;;;;6.40;5.73;;;14.80;50.80;;;;;;5244181;27;20327;-66
2024/04/13 00:46:42;;;;;;;6.80;6.13;;;14.60;51.20;;;;;;5243827;27;20321;-66
2024/04/13 00:49:13;;;;;;;6.90;6.17;;;14.60;51.50;;;;;;5243057;27;20255;-66
2024/04/13 00:51:40;;;;;;;7.43;6.50;;;14.60;51.60;;;;;;5243682;27;20337;-66
2024/04/13 00:54:08;;;;;;;6.87;5.93;;;14.50;52.50;;;;;;5238933;27;20259;-66
2024/04/13 00:56:33;;;;;;;8.87;6.17;;;14.50;51.90;;;;;;5243896;27;20248;-66
2024/04/13 00:59:02;;;;;;;6.90;6.30;;;14.60;51.60;;;;;;5244218;27;20737;-66
2024/04/13 01:01:27;;;;;;;6.03;5.53;;;14.60;51.50;;;;;;5247285;27;20350;-66
2024/04/13 01:03:55;;;;;;;7.30;6.50;;;14.50;51.70;;;;;;5244614;27;20248;-66
2024/04/13 01:06:21;;;;;;;6.03;5.43;;;14.50;51.60;;;;;;5239640;27;20294;-66
2024/04/13 01:08:50;;;;;;;6.73;5.87;;;14.60;51.60;;;;;;5244154;27;20247;-66
2024/04/13 01:11:15;;;;;;;6.23;5.47;;;14.50;51.60;;;;;;5244938;27;20238;-66
2024/04/13 01:13:43;;;;;;;10.53;6.47;;;14.50;51.90;;;;;;5244549;27;20289;-66
2024/04/13 01:16:10;;;;;;;6.70;6.00;;;14.50;52.70;;;;;;5244270;27;20245;-66
2024/04/13 01:18:39;;;;;;;7.50;5.87;;;14.30;53.10;;;;;;5244418;27;20247;-66
2024/04/13 01:21:05;;;;;;;6.33;5.60;;;14.20;53.70;;;;;;5231721;27;20237;-66
2024/04/13 01:23:33;;;;;;;6.83;6.13;;;14.10;53.50;;;;;;5243625;27;20648;-66
2024/04/13 01:25:59;;;;;;;7.27;5.93;;;14.10;54.10;;;;;;5239065;27;20357;-66
2024/04/13 01:28:27;;;;;;;7.17;6.23;;;14.00;54.40;;;;;;5244620;27;20739;-66
2024/04/13 01:30:53;;;;;;;6.00;5.40;;;14.10;54.10;;;;;;5243818;27;20311;-66
2024/04/13 01:33:21;;;;;;;6.83;6.00;;;14.00;54.30;;;;;;5244609;27;20242;-66
2024/04/13 01:35:47;;;;;;;8.00;5.83;;;14.00;54.40;;;;;;5244843;27;20247;-66
2024/04/13 01:38:15;;;;;;;6.60;5.90;;;13.90;54.40;;;;;;5244262;27;20308;-66
2024/04/13 01:40:41;;;;;;;9.70;6.50;;;13.90;54.60;;;;;;5243686;27;20375;-65
2024/04/13 01:43:09;;;;;;;7.77;5.87;;;13.90;55.00;;;;;;5243842;27;20256;-65
2024/04/13 01:45:35;;;;;;;6.30;5.43;;;13.80;55.70;;;;;;5239936;27;20754;-66
2024/04/13 01:48:03;;;;;;;6.00;5.50;;;14.00;55.00;;;;;;5243141;27;20342;-65
2024/04/13 01:50:28;;;;;;;6.43;5.17;;;13.90;55.30;;;;;;5244031;27;20242;-65
2024/04/13 01:52:56;;;;;;;6.47;5.70;;;14.00;54.40;;;;;;5243885;27;20427;-66
2024/04/13 01:55:22;;;;;;;5.60;5.10;;;13.90;54.50;;;;;;5243688;27;20241;-66
2024/04/13 01:57:50;;;;;;;6.10;5.50;;;13.90;55.20;;;;;;5243882;27;20353;-65
2024/04/13 02:00:16;;;;;;;6.63;5.93;;;13.90;55.30;;;;;;5246581;27;20375;-65
2024/04/13 02:02:44;;;;;;;6.27;5.73;;;13.80;55.90;;;;;;5239506;27;20670;-66
2024/04/13 02:05:10;;;;;;;5.73;5.13;;;13.70;55.60;;;;;;5243850;27;20243;-66
2024/04/13 02:07:39;;;;;;;6.77;5.83;;;13.70;55.70;;;;;;5244113;27;20298;-66
2024/04/13 02:10:06;;;;;;;7.47;5.73;;;13.70;55.00;;;;;;5243799;27;20242;-65
2024/04/13 02:12:34;;;;;;;7.03;5.80;;;13.90;54.70;;;;;;5243344;27;20734;-66
2024/04/13 02:14:59;;;;;;;6.70;5.80;;;13.90;54.30;;;;;;5243726;27;20283;-65
2024/04/13 02:17:28;;;;;;;5.73;5.23;;;13.90;54.20;;;;;;5239063;27;20628;-66
2024/04/13 02:19:53;;;;;;;5.67;5.17;;;14.00;54.10;;;;;;5242740;27;20359;-64
2024/04/13 02:22:22;;;;;;;6.23;5.63;;;14.00;53.90;;;;;;5269338;27;20357;-66
2024/04/13 02:24:47;;;;;;;5.63;5.10;;;14.10;53.90;;;;;;5243224;27;20288;-66
2024/04/13 02:27:16;;;;;;;5.37;4.77;;;14.00;53.90;;;;;;5239226;27;20248;-65
2024/04/13 02:29:43;;;;;;;5.10;4.60;;;14.00;53.80;;;;;;5238283;27;20306;-65
2024/04/13 02:32:11;;;;;;;5.57;5.10;;;13.90;54.40;;;;;;5243445;27;20246;-66
2024/04/13 02:34:37;;;;;;;5.97;5.37;;;13.80;54.60;;;;;;5242514;27;20362;-66
2024/04/13 02:37:05;;;;;;;5.07;4.67;;;13.90;54.60;;;;;;5255024;27;20253;-66
2024/04/13 02:39:31;;;;;;;6.03;5.30;;;13.90;54.50;;;;;;5240251;27;20277;-66
2024/04/13 02:42:00;;;;;;;6.70;5.10;;;13.80;54.50;;;;;;5241767;27;20376;-66
2024/04/13 02:44:26;;;;;;;6.00;5.00;;;13.80;54.60;;;;;;5234813;27;20713;-65
2024/04/13 02:46:54;;;;;;;5.40;4.90;;;13.80;55.00;;;;;;5241400;27;20423;-66
2024/04/13 02:49:19;;;;;;;5.30;4.80;;;13.70;55.20;;;;;;5242773;27;20253;-66
2024/04/13 02:51:48;;;;;;;5.30;4.80;;;13.60;55.50;;;;;;5242478;27;20245;-66
2024/04/13 02:54:13;;;;;;;5.73;5.17;;;13.50;56.30;;;;;;5241330;27;20712;-65
2024/04/13 02:56:41;;;;;;;6.70;4.60;;;13.30;57.00;;;;;;5242419;27;20251;-66
2024/04/13 02:59:07;;;;;;;5.30;4.80;;;13.20;57.30;;;;;;5242579;27;20328;-66
2024/04/13 03:01:35;;;;;;;5.30;4.80;;;13.10;57.60;;;;;;5234406;27;20261;-65
2024/04/13 03:04:01;;;;;;;11.83;5.00;;;13.10;57.50;;;;;;5239307;27;20857;-65
2024/04/13 03:06:29;;;;;;;5.60;5.00;;;13.20;57.60;;;;;;5242727;27;20241;-66
2024/04/13 03:08:54;;;;;;;5.90;5.30;;;13.20;57.30;;;;;;5242234;27;20244;-65
2024/04/13 03:11:23;;;;;;;5.47;4.97;;;13.00;57.70;;;;;;5242239;27;20284;-66
2024/04/13 03:13:49;;;;;;;5.90;5.20;;;13.00;57.90;;;;;;5241320;27;20286;-66
2024/04/13 03:16:17;;;;;;;5.07;4.63;;;12.90;58.20;;;;;;5242455;27;20329;-66
2024/04/13 03:18:43;;;;;;;6.03;5.10;;;12.80;58.50;;;;;;5241635;27;20304;-66
2024/04/13 03:21:12;;;;;;;5.97;5.20;;;12.80;58.80;;;;;;5233322;27;20628;-66
2024/04/13 03:23:37;;;;;;;8.40;5.40;;;12.80;58.70;;;;;;5242063;27;20895;-66
2024/04/13 03:26:06;;;;;;;5.90;5.30;;;12.70;59.20;;;;;;5241819;27;20743;-66
2024/04/13 03:28:33;;;;;;;6.80;6.10;;;12.70;58.90;;;;;;5242102;27;20676;-66
2024/04/13 03:31:01;;;;;;;7.00;5.70;;;12.60;58.80;;;;;;5241450;27;20276;-66
2024/04/13 03:33:27;;;;;;;5.80;5.30;;;12.70;58.10;;;;;;5242180;27;20292;-66
2024/04/13 03:35:55;;;;;;;6.60;6.10;;;12.70;58.50;;;;;;5241974;27;20735;-66
2024/04/13 03:38:25;;;;;;;6.03;5.53;;;12.70;58.10;;;;;;5234117;27;20724;-65
2024/04/13 03:40:53;;;;;;;5.77;5.27;;;12.70;58.30;;;;;;5241225;27;20812;-66
2024/04/13 03:43:18;;;;;;;6.30;5.70;;;12.60;58.70;;;;;;5244688;27;20384;-65
2024/04/13 03:45:47;;;;;;;7.50;5.90;;;12.70;58.10;;;;;;5241948;27;20249;-66
2024/04/13 03:48:13;;;;;;;6.27;5.67;;;12.70;58.00;;;;;;5241721;27;20235;-65
2024/04/13 03:50:41;;;;;;;6.17;5.60;;;12.60;58.30;;;;;;5241513;27;20278;-66
2024/04/13 03:53:07;;;;;;;6.10;5.53;;;12.60;58.70;;;;;;5241987;27;20764;-66
2024/04/13 03:55:35;;;;;;;6.90;5.83;;;12.40;58.80;;;;;;5232332;27;20244;-66
2024/04/13 03:58:00;;;;;;;6.40;5.90;;;12.30;59.70;;;;;;5240701;27;20256;-65
2024/04/13 04:00:29;;;;;;;6.10;5.53;;;12.20;59.80;;;;;;5241815;27;20232;-66
2024/04/13 04:02:56;;;;;;;6.13;5.63;;;12.20;59.80;;;;;;5234069;27;20296;-66
2024/04/13 04:05:24;;;;;;;7.17;6.20;;;12.30;59.90;;;;;;5241748;27;20374;-66
2024/04/13 04:07:50;;;;;;;7.63;6.00;;;12.40;59.60;;;;;;5235246;27;20256;-66
2024/04/13 04:10:19;;;;;;;7.43;6.07;;;12.30;59.20;;;;;;5241549;27;20741;-66
2024/04/13 04:12:44;;;;;;;6.23;5.63;;;12.30;59.90;;;;;;5240768;27;20778;-65
2024/04/13 04:15:15;;;;;;;7.07;5.97;;;12.40;59.70;;;;;;5240105;27;20282;-66
2024/04/13 04:17:41;;;;;;;6.10;5.60;;;12.40;59.50;;;;;;5241476;27;20260;-66
2024/04/13 04:20:09;;;;;;;6.47;5.93;;;12.40;59.60;;;;;;5241678;27;20353;-66
2024/04/13 04:22:35;;;;;;;6.33;5.80;;;12.40;59.70;;;;;;5242249;27;20315;-66
2024/04/13 04:25:06;;;;;;;7.17;6.50;;;12.30;59.90;;;;;;5241724;27;20247;-65
2024/04/13 04:27:31;;;;;;;7.23;6.30;;;12.10;59.70;;;;;;5236774;27;20251;-66
2024/04/13 04:30:00;;;;;;;6.77;5.83;;;12.20;59.90;;;;;;5661490;21;20388;-66
2024/04/13 04:32:25;;;;;;;6.50;5.90;;;12.20;60.60;;;;;;5370564;26;20240;-66
2024/04/13 04:34:54;;;;;;;6.13;5.63;;;12.30;59.90;;;;;;5376005;26;20348;-66
2024/04/13 04:37:20;;;;;;;6.90;6.20;;;12.30;60.20;;;;;;5398665;26;20738;-66
2024/04/13 04:39:48;;;;;;;6.50;5.90;;;12.30;60.40;;;;;;5396933;26;20273;-66
2024/04/13 04:42:15;;;;;;;6.97;6.03;;;12.30;59.90;;;;;;5385855;26;20260;-66
2024/04/13 04:44:44;;;;;;;6.00;5.40;;;12.40;60.00;;;;;;5393948;26;20240;-65
2024/04/13 04:47:11;;;;;;;6.17;5.57;;;12.30;59.90;;;;;;5395468;26;20239;-66
2024/04/13 04:49:39;;;;;;;6.00;5.50;;;12.30;60.40;;;;;;5388940;26;20275;-66
2024/04/13 04:52:06;;;;;;;6.13;5.63;;;12.30;60.30;;;;;;5386537;26;20346;-66
2024/04/13 04:54:34;;;;;;;6.37;5.73;;;12.10;61.00;;;;;;5378351;26;20239;-66
2024/04/13 04:56:59;;;;;;;6.53;5.90;;;12.30;61.50;;;;;;5384700;26;20297;-66
2024/04/13 04:59:28;;;;;;;7.10;5.90;;;12.30;61.10;;;;;;5400771;26;20333;-66
2024/04/13 05:01:53;;;;;;;6.67;6.00;;;12.50;60.40;;;;;;5402235;26;20621;-66
2024/04/13 05:04:22;;;;;;;6.40;5.80;;;12.50;60.10;;;;;;5395599;26;20460;-66
2024/04/13 05:06:47;;;;;;;6.13;5.53;;;12.40;60.80;;;;;;5395771;26;20352;-66
2024/04/13 05:09:15;;;;;;;5.50;5.00;;;12.60;60.20;;;;;;5389323;26;20251;-66
2024/04/13 05:11:41;;;;;;;5.97;5.57;;;12.70;60.30;;;;;;5397425;26;20310;-66
2024/04/13 05:14:10;;;;;;;7.10;5.23;;;12.60;60.20;;;;;;5392806;26;20341;-66
2024/04/13 05:16:36;;;;;;;7.23;5.53;;;12.90;59.60;;;;;;5393843;26;20235;-66
2024/04/13 05:19:04;;;;;;;6.00;5.10;;;12.90;59.70;;;;;;5396140;26;20294;-66
2024/04/13 05:21:30;;;;;;;4.93;4.53;;;13.00;59.50;;;;;;5396256;26;20291;-66
2024/04/13 05:23:58;;;;;;;5.80;5.30;;;13.00;59.20;;;;;;5396428;26;20297;-66
2024/04/13 05:26:24;;;;;;;4.80;4.33;;;13.00;59.20;;;;;;5389727;26;20243;-66
2024/04/13 05:28:52;;;;;;;5.33;4.83;;;13.00;59.30;;;;;;5377506;26;20725;-66
2024/04/13 05:31:18;;;;;;;5.60;5.10;;;13.20;58.90;;;;;;5395152;26;20641;-66
2024/04/13 05:33:46;;;;;;;6.47;5.83;;;13.00;58.30;;;;;;5381699;26;20345;-66
2024/04/13 05:36:11;;;;;;;7.73;5.47;;;12.90;58.70;;;;;;5395288;26;20237;-66
2024/04/13 05:38:40;;;;;;;5.97;5.40;;;13.10;58.80;;;;;;5395999;26;20794;-66
2024/04/13 05:41:05;;;;;;;5.10;4.60;;;13.10;58.40;;;;;;5402456;26;20369;-66
2024/04/13 05:43:34;;;;;;;5.53;5.13;;;13.40;57.80;;;;;;5388088;26;20248;-66
2024/04/13 05:45:59;;;;;;;6.10;5.60;;;13.50;57.50;;;;;;5391039;26;20730;-66
2024/04/13 05:48:27;;;;;;;4.93;4.53;;;13.40;57.30;;;;;;5384265;26;20661;-66
2024/04/13 05:50:53;;;;;;;4.90;4.37;;;13.70;56.70;;;;;;5398230;26;20297;-66
2024/04/13 05:53:22;;;;;;;6.43;5.10;;;13.80;56.50;;;;;;5400365;26;20354;-66
2024/04/13 05:55:47;;;;;;;5.57;4.93;;;13.70;56.70;;;;;;5378882;26;20229;-66
2024/04/13 05:58:15;;;;;;;5.10;4.57;;;13.80;56.00;;;;;;5395985;26;20284;-66
2024/04/13 06:00:41;;;;;;;4.93;4.43;;;14.10;55.50;;;;;;5396769;26;20650;-66
2024/04/13 06:03:09;;;;;;;6.17;5.47;;;14.30;55.10;;;;;;5380378;26;20633;-66
2024/04/13 06:05:35;;;;;;;6.20;4.07;;;14.30;54.90;;;;;;5391901;26;20733;-66
2024/04/13 06:08:04;;;;;;;4.67;4.27;;;14.60;54.50;;;;;;5395817;26;20236;-66
2024/04/13 06:10:29;;;;;;;6.07;4.50;;;14.70;54.10;;;;;;5395123;26;20279;-66
2024/04/13 06:12:58;;;;;;;4.80;4.37;;;14.90;53.40;;;;;;5398539;26;20232;-66
2024/04/13 06:15:23;;;;;;;4.80;4.30;;;15.10;53.10;;;;;;5384963;26;20690;-66
2024/04/13 06:17:52;;;;;;;6.47;3.90;;;15.20;53.10;;;;;;5399204;26;20232;-66
2024/04/13 06:20:17;;;;;;;4.70;4.20;;;15.40;52.80;;;;;;5386274;26;20239;-66
2024/04/13 06:22:45;;;;;;;4.83;4.43;;;15.50;51.80;;;;;;5382131;26;20346;-66
2024/04/13 06:25:11;;;;;;;4.77;4.03;;;15.70;52.00;;;;;;5394586;26;20334;-66
2024/04/13 06:27:39;;;;;;;6.00;4.07;;;15.80;51.40;;;;;;5383919;26;21384;-66
2024/04/13 06:30:05;;;;;;;4.67;4.20;;;15.70;51.60;;;;;;5393172;26;20304;-66
2024/04/13 06:32:33;;;;;;;5.00;4.00;;;15.60;51.50;;;;;;5394195;26;20820;-66
2024/04/13 06:34:59;;;;;;;4.43;4.00;;;15.60;51.80;;;;;;5396285;26;20717;-66
2024/04/13 06:37:27;;;;;;;4.67;4.10;;;15.70;51.90;;;;;;5395038;26;20337;-66
2024/04/13 06:39:53;;;;;;;5.53;4.10;;;15.80;52.10;;;;;;5396465;26;20289;-67
2024/04/13 06:42:21;;;;;;;5.70;4.47;;;16.00;52.10;;;;;;5385319;26;20248;-67
2024/04/13 06:44:47;;;;;;;4.53;3.70;;;16.30;51.20;;;;;;5380965;26;20338;-66
2024/04/13 06:47:15;;;;;;;4.80;3.93;;;16.30;50.80;;;;;;5372277;26;20749;-66
2024/04/13 06:49:40;;;;;;;5.97;4.30;;;16.50;50.30;;;;;;5371206;26;20249;-66
2024/04/13 06:52:09;;;;;;;5.80;3.80;;;16.60;50.40;;;;;;5359350;26;20494;-66
2024/04/13 06:54:34;;;;;;;4.90;4.47;;;16.70;50.10;;;;;;5372569;26;20343;-69
2024/04/13 06:57:02;;;;;;;5.03;4.37;;;16.80;50.10;;;;;;5388032;26;20254;-68
2024/04/13 06:59:28;;;;;;;4.77;4.20;;;16.70;50.00;;;;;;5372209;26;20321;-66
2024/04/13 07:01:56;;;;;;;4.20;3.90;;;16.90;49.70;;;;;;5377237;26;20353;-67
2024/04/13 07:04:22;;;;;;;4.20;3.67;;;17.00;49.80;;;;;;5376903;26;20774;-67
2024/04/13 07:06:50;;;;;;;3.97;3.53;;;17.10;50.30;;;;;;5372563;26;20326;-67
2024/04/13 07:09:16;;;;;;;3.63;3.33;;;17.30;50.30;;;;;;5370134;26;20376;-67
2024/04/13 07:11:44;;;;;;;6.17;3.37;;;17.30;48.80;;;;;;5375252;26;20260;-67
2024/04/13 07:14:10;;;;;;;5.23;4.10;;;17.40;49.20;;;;;;5394055;26;20243;-68
2024/04/13 07:16:38;;;;;;;4.57;3.47;;;17.50;49.20;;;;;;5384389;26;20352;-67
2024/04/13 07:19:04;;;;;;;3.40;3.03;;;17.60;48.20;;;;;;5376929;26;20240;-68
2024/04/13 07:21:32;;;;;;;4.87;3.57;;;17.60;48.60;;;;;;5392036;26;20341;-66
2024/04/13 07:23:57;;;;;;;3.80;3.50;;;17.70;48.30;;;;;;5378749;26;20361;-67
2024/04/13 07:26:26;;;;;;;4.20;3.80;;;17.80;48.60;;;;;;5392431;26;20265;-67
2024/04/13 07:28:51;;;;;;;4.67;3.00;;;18.00;48.00;;;;;;5363090;26;20353;-67
2024/04/13 07:31:19;;;;;;;4.47;3.10;;;18.10;48.30;;;;;;5392465;26;20747;-67
2024/04/13 07:33:45;;;;;;;3.47;3.10;;;18.30;47.30;;;;;;5372377;26;20349;-67
2024/04/13 07:36:13;;;;;;;6.67;4.00;;;18.50;47.10;;;;;;5370500;26;20247;-68
2024/04/13 07:38:39;;;;;;;6.17;3.80;;;18.50;47.40;;;;;;5377506;26;20695;-68
2024/04/13 07:41:07;;;;;;;5.80;3.80;;;18.70;47.60;;;;;;5374156;26;20248;-67
2024/04/13 07:43:33;;;;;;;3.87;3.50;;;18.70;47.20;;;;;;5373974;26;20710;-68
2024/04/13 07:46:01;;;;;;;4.17;3.30;;;18.80;46.80;;;;;;5378476;26;20322;-66
2024/04/13 07:48:27;;;;;;;3.73;3.43;;;18.80;46.50;;;;;;5408058;26;20231;-67
2024/04/13 07:50:55;;;;;;;3.73;3.43;;;19.10;48.00;;;;;;5389723;26;20317;-66
2024/04/13 07:53:21;;;;;;;5.87;3.67;;;19.20;46.40;;;;;;5399980;26;20242;-66
2024/04/13 07:55:50;;;;;;;5.43;3.63;;;19.20;45.90;;;;;;5398213;26;20273;-66
2024/04/13 07:58:15;;;;;;;4.83;3.50;;;19.40;45.20;;;;;;5391759;26;20559;-66
2024/04/13 08:00:44;;;;;;;5.43;4.10;;;19.40;46.00;;;;;;5371391;26;20317;-67
2024/04/13 08:03:10;;;;;;;7.70;4.00;;;19.50;45.60;;;;;;5393153;26;20312;-68
2024/04/13 08:05:38;;;;;;;5.10;4.27;;;19.50;43.70;;;;;;5388072;26;20286;-67
2024/04/13 08:08:04;;;;;;;6.20;4.80;;;19.30;43.50;;;;;;5363852;26;20405;-68
2024/04/13 08:10:32;;;;;;;5.60;3.67;;;19.50;44.20;;;;;;5386886;26;20242;-68
2024/04/13 08:12:57;;;;;;;6.03;4.30;;;19.60;43.80;;;;;;5383873;26;20256;-66
2024/04/13 08:15:26;;;;;;;5.63;4.10;;;19.60;44.00;;;;;;5390081;26;20245;-67
2024/04/13 08:17:51;;;;;;;6.77;3.93;;;19.80;43.90;;;;;;5378411;26;20357;-67
2024/04/13 08:20:20;;;;;;;4.33;3.70;;;20.00;44.60;;;;;;5379782;26;20257;-67
2024/04/13 08:22:45;;;;;;;4.97;3.80;;;20.00;43.40;;;;;;5381160;26;20855;-67
2024/04/13 08:25:13;;;;;;;5.10;3.80;;;20.10;43.60;;;;;;5398548;26;20337;-67
2024/04/13 08:27:39;;;;;;;4.37;3.70;;;20.20;43.60;;;;;;5375674;26;20259;-67
2024/04/13 08:30:09;;;;;;;4.07;3.67;;;20.40;43.70;;;;;;5367676;26;20618;-67
2024/04/13 08:32:34;;;;;;;7.03;3.93;;;20.60;43.50;;;;;;5379230;26;20238;-67
2024/04/13 08:35:03;;;;;;;4.83;3.73;;;20.70;43.50;;;;;;5376813;26;20357;-67
2024/04/13 08:37:28;;;;;;;4.60;4.20;;;20.80;43.30;;;;;;5376832;26;20386;-68
2024/04/13 08:39:57;;;;;;;6.00;4.90;;;20.80;42.10;;;;;;5383179;26;20247;-68
2024/04/13 08:42:22;;;;;;;5.20;4.70;;;20.80;42.10;;;;;;5382095;26;20231;-68
2024/04/13 08:44:50;;;;;;;4.20;3.70;;;20.90;41.00;;;;;;5373549;26;20664;-68
2024/04/13 08:47:16;;;;;;;5.00;4.07;;;21.20;42.50;;;;;;5373270;26;20821;-67
2024/04/13 08:49:44;;;;;;;3.58;3.25;;;21.40;42.30;;;;;;5384236;26;21565;-67
2024/04/13 08:52:11;;;;;;;6.25;4.13;;;21.40;41.80;;;;;;5378191;26;20255;-65
2024/04/13 08:54:39;;;;;;;6.53;4.20;;;21.60;40.00;;;;;;5380047;26;20301;-65
2024/04/13 08:57:05;;;;;;;6.75;4.60;;;21.70;40.00;;;;;;5367301;26;20236;-65
2024/04/13 08:59:33;;;;;;;6.65;4.32;;;21.80;40.20;;;;;;5396102;26;20874;-65
2024/04/13 09:01:59;;;;;;;5.03;4.43;;;21.80;40.20;;;;;;5396088;26;20240;-65
2024/04/13 09:04:27;;;;;;;4.68;4.15;;;21.80;38.70;;;;;;5395054;26;20302;-65
2024/04/13 09:06:52;;;;;;;4.65;4.00;;;21.70;38.90;;;;;;5379452;26;20627;-65
2024/04/13 09:09:21;;;;;;;4.65;3.78;;;22.00;39.30;;;;;;5381572;26;20240;-65
2024/04/13 09:11:46;;;;;;;6.30;3.90;;;23.30;37.40;;;;;;5395709;26;20239;-65
2024/04/13 09:14:15;;;;;;;6.22;4.45;;;25.20;32.50;;;;;;5395566;26;20319;-65
2024/04/13 09:16:40;;;;;;;4.82;3.53;;;24.90;32.80;;;;;;5381974;26;20680;-65
2024/04/13 09:19:09;;;;;;;5.70;3.60;;;23.50;35.40;;;;;;5382765;26;20345;-65
2024/04/13 09:21:34;;;;;;;4.30;3.55;;;22.80;35.80;;;;;;5394535;26;20240;-65
2024/04/13 09:24:04;;;;;;;5.15;3.95;;;22.60;35.20;;;;;;5395790;26;20239;-64
2024/04/13 09:26:29;;;;;;;5.13;3.72;;;22.50;36.00;;;;;;5395905;26;20235;-65
2024/04/13 09:28:57;;;;;;;4.55;3.97;;;22.60;36.80;;;;;;5380957;26;20288;-65
2024/04/13 09:31:23;;;;;;;3.90;3.50;;;22.70;35.90;;;;;;5369103;26;20255;-65
2024/04/13 09:33:51;;;;;;;6.88;3.45;;;22.50;37.60;;;;;;5379985;26;20328;-68
2024/04/13 09:36:17;;;;;;;5.30;3.60;;;22.40;38.10;;;;;;5379194;26;20311;-65
2024/04/13 09:38:45;;;;;;;5.38;3.13;;;22.50;36.80;;;;;;5375232;26;20797;-65
2024/04/13 09:41:11;;;;;;;3.42;3.13;;;22.50;37.70;;;;;;5379903;26;20239;-65
2024/04/13 09:43:39;;;;;;;5.80;4.05;;;22.30;36.60;;;;;;5394595;26;20235;-65
2024/04/13 09:46:04;;;;;;;5.70;4.03;;;22.30;37.50;;;;;;5365831;26;20299;-65
2024/04/13 09:48:32;;;;;;;4.65;3.65;;;22.30;35.00;;;;;;5365167;26;20260;-65
2024/04/13 09:50:58;;;;;;;5.68;4.60;;;22.30;35.40;;;;;;5378302;26;20294;-66
2024/04/13 09:53:27;;;;;;;5.25;4.18;;;22.20;34.20;;;;;;5373764;26;20333;-68
2024/04/13 09:55:52;;;;;;;5.15;3.75;;;22.20;36.10;;;;;;5353998;26;20334;-68
2024/04/13 09:58:21;;;;;;;3.95;3.30;;;22.30;36.50;;;;;;5363137;26;20259;-68
2024/04/13 10:00:46;;;;;;;6.95;4.63;;;22.70;37.30;;;;;;5363194;26;20232;-67
2024/04/13 10:03:14;;;;;;;4.97;4.53;;;22.40;35.20;;;;;;5356101;26;20290;-66
2024/04/13 10:05:40;;;;;;;4.30;3.90;;;22.40;35.20;;;;;;5360669;26;20905;-67
2024/04/13 10:08:08;;;;;;;5.85;4.47;;;22.60;35.90;;;;;;5366030;26;20851;-67
2024/04/13 10:10:34;;;;;;;6.70;4.93;;;22.50;35.30;;;;;;5363590;26;20295;-67
2024/04/13 10:13:02;;;;;;;6.05;4.13;;;22.40;33.30;;;;;;5372328;26;20289;-66
2024/04/13 10:15:28;;;;;;;7.47;4.65;;;22.30;34.20;;;;;;5387685;26;20243;-66
2024/04/13 10:17:56;;;;;;;5.47;3.28;;;22.40;33.30;;;;;;5360263;26;20240;-66
2024/04/13 10:20:21;;;;;;;3.88;3.55;;;22.40;33.60;;;;;;5369853;26;20291;-67
2024/04/13 10:22:50;;;;;;;4.97;3.75;;;22.50;32.70;;;;;;5366949;26;20352;-67
2024/04/13 10:25:15;;;;;;;4.78;3.35;;;22.60;34.00;;;;;;5358548;26;20252;-67
2024/04/13 10:27:44;;;;;;;4.00;3.60;;;22.70;33.90;;;;;;5346480;26;20239;-67
2024/04/13 10:30:09;;;;;;;4.88;2.90;;;22.80;33.60;;;;;;5359652;26;20252;-67
2024/04/13 10:32:38;;;;;;;5.13;4.00;;;22.70;35.80;;;;;;5397175;26;20276;-66
2024/04/13 10:35:03;;;;;;;5.00;4.05;;;22.80;33.20;;;;;;5366262;26;20236;-66
2024/04/13 10:37:32;;;;;;;6.85;3.80;;;22.70;32.80;;;;;;5389517;26;20635;-67
2024/04/13 10:39:57;;;;;;;5.05;3.30;;;22.90;33.30;;;;;;5364580;26;20267;-67
2024/04/13 10:42:26;;;;;;;11.13;3.50;;;22.80;32.70;;;;;;5383078;26;20729;-66
2024/04/13 10:44:51;;;;;;;3.90;3.13;;;22.80;31.70;;;;;;5390388;26;20313;-68
2024/04/13 10:47:19;;;;;;;3.53;3.10;;;22.80;32.10;;;;;;5380847;26;20235;-68
2024/04/13 10:49:45;;;;;;;3.60;3.30;;;22.90;31.50;;;;;;5350319;26;20240;-67
2024/04/13 10:52:13;;;;;;;4.90;3.45;;;22.80;32.70;;;;;;5348273;26;20244;-66
2024/04/13 10:54:39;;;;;;;2.72;2.53;;;22.80;32.10;;;;;;5361929;26;20365;-65
2024/04/13 10:57:08;;;;;;;4.55;3.22;;;22.70;32.00;;;;;;5369761;26;21082;-66
2024/04/13 10:59:36;;;;;;;2.88;2.42;;;22.70;32.30;;;;;;5369131;26;20252;-66
2024/04/13 11:02:04;;;;;;;3.95;2.60;;;22.80;33.40;;;;;;5388869;26;20720;-67
2024/04/13 11:04:30;;;;;;;3.75;2.50;;;22.90;33.90;;;;;;5378818;26;20247;-66
2024/04/13 11:06:58;;;;;;;4.18;3.08;;;23.00;33.40;;;;;;5379306;26;20278;-63
2024/04/13 11:09:24;;;;;;;4.40;2.85;;;23.30;32.60;;;;;;5378316;26;20296;-66
2024/04/13 11:11:52;;;;;;;3.47;3.13;;;23.20;30.60;;;;;;5378846;26;20840;-65
2024/04/13 11:14:17;;;;;;;2.88;2.60;;;23.10;31.30;;;;;;5378587;26;20244;-66
2024/04/13 11:16:46;;;;;;;3.60;2.63;;;23.20;32.50;;;;;;5378955;26;20341;-65
2024/04/13 11:19:11;;;;;;;3.15;2.85;;;23.20;32.00;;;;;;5372118;26;20306;-65
2024/04/13 11:21:39;;;;;;;3.70;2.63;;;23.20;31.20;;;;;;5379042;26;20251;-66
2024/04/13 11:24:08;;;;;;;4.13;2.80;;;23.30;29.90;;;;;;5372067;26;20298;-65
2024/04/13 11:26:36;;;;;;;3.75;2.80;;;23.20;32.20;;;;;;5369617;26;20255;-64
2024/04/13 11:29:01;;;;;;;3.78;2.70;;;23.20;32.50;;;;;;5380719;26;20243;-65
2024/04/13 11:31:30;;;;;;;3.10;2.75;;;23.20;32.00;;;;;;5379221;26;20295;-65
2024/04/13 11:33:55;;;;;;;2.97;2.58;;;23.30;32.50;;;;;;5372801;26;20868;-65
2024/04/13 11:36:24;;;;;;;2.55;2.30;;;23.40;32.10;;;;;;5387658;26;20263;-65
2024/04/13 11:38:49;;;;;;;2.53;2.20;;;23.40;32.00;;;;;;5381177;26;20286;-68
2024/04/13 11:41:18;;;;;;;3.45;2.97;;;23.50;32.20;;;;;;5389847;26;20602;-67
2024/04/13 11:43:43;;;;;;;2.60;2.15;;;23.50;30.50;;;;;;5398125;26;20238;-67
2024/04/13 11:46:11;;;;;;;3.67;2.67;;;23.40;31.70;;;;;;5385892;26;20737;-66
2024/04/13 11:48:37;;;;;;;3.00;2.70;;;23.40;31.90;;;;;;5379502;26;20236;-66
2024/04/13 11:51:06;;;;;;;5.68;2.60;;;23.50;31.50;;;;;;5385069;26;20331;-65
2024/04/13 11:53:31;;;;;;;3.08;2.55;;;23.40;33.40;;;;;;5380977;26;20723;-66
2024/04/13 11:55:59;;;;;;;6.40;2.83;;;23.50;31.90;;;;;;5377768;26;20312;-65
2024/04/13 11:58:25;;;;;;;3.10;2.60;;;23.50;31.90;;;;;;5380019;26;20283;-66
2024/04/13 12:00:53;;;;;;;4.03;2.50;;;23.60;34.00;;;;;;5393672;26;20703;-66
2024/04/13 12:03:19;;;;;;;2.35;2.05;;;23.50;36.70;;;;;;5391790;26;20335;-66
2024/04/13 12:05:47;;;;;;;4.63;2.20;;;23.40;32.40;;;;;;5380987;26;20256;-66
2024/04/13 12:08:13;;;;;;;4.68;2.40;;;23.60;30.90;;;;;;5381889;26;20291;-66
2024/04/13 12:10:42;;;;;;;3.20;2.10;;;23.60;29.70;;;;;;5380518;26;20609;-66
2024/04/13 12:13:07;;;;;;;3.42;2.08;;;23.50;35.00;;;;;;5393291;26;20255;-67
2024/04/13 12:15:35;;;;;;;3.67;1.95;;;23.40;34.20;;;;;;5403014;26;20235;-67
2024/04/13 12:18:01;;;;;;;2.65;2.22;;;23.60;29.50;;;;;;5378290;26;20363;-66
2024/04/13 12:20:29;;;;;;;4.85;2.35;;;23.70;29.20;;;;;;5392715;26;20727;-67
2024/04/13 12:22:55;;;;;;;4.20;2.20;;;23.80;29.00;;;;;;5393649;26;20248;-67
2024/04/13 12:25:23;;;;;;;2.65;2.45;;;23.80;28.80;;;;;;5388669;26;20247;-66
2024/04/13 12:27:48;;;;;;;3.75;2.00;;;23.80;28.60;;;;;;5395348;26;20362;-66
2024/04/13 12:30:17;;;;;;;3.70;2.20;;;23.80;33.10;;;;;;5396364;26;20761;-67
2024/04/13 12:32:42;;;;;;;4.75;2.38;;;23.60;33.10;;;;;;5376185;26;20251;-65
2024/04/13 12:35:11;;;;;;;3.75;2.13;;;23.70;29.30;;;;;;5386301;26;20235;-65
2024/04/13 12:37:36;;;;;;;2.55;2.30;;;23.60;31.50;;;;;;5381066;26;20417;-65
2024/04/13 12:40:06;;;;;;;3.35;2.30;;;23.50;34.20;;;;;;5370367;26;20232;-67
2024/04/13 12:42:31;;;;;;;3.33;2.17;;;23.50;31.90;;;;;;5371452;26;20300;-65